Time;durP1;ratioP1;P1;durP2;ratioP2;P2;SDS_P1;SDS_P2;PMS_P1;PMS_P2;Temp;Humidity;BMP_temperature;BMP_pressure;BME280_temperature;BME280_humidity;BME280_pressure;Samples;Min_cycle;Max_cycle;Signal;HPM_P1;HPM_P2
2021/11/09 00:01:23;;;;;;;3.05;1.45;;;;;;;0.30;100.00;102230.38;4843789;29;20037;-76
2021/11/09 00:03:56;;;;;;;4.40;1.60;;;;;;;0.31;100.00;102222.34;4843641;29;20108;-79
2021/11/09 00:06:22;;;;;;;1.83;1.27;;;;;;;0.42;100.00;102233.09;4828781;29;20065;-77
2021/11/09 00:09:15;;;;;;;2.08;1.55;;;;;;;0.46;100.00;102231.09;4843690;29;20076;-79
2021/11/09 00:11:35;;;;;;;1.67;1.40;;;;;;;0.46;100.00;102229.34;4845017;29;20045;-77
2021/11/09 00:14:01;;;;;;;2.53;1.58;;;;;;;0.50;100.00;102234.41;4853652;29;20508;-78
2021/11/09 00:16:27;;;;;;;3.42;1.38;;;;;;;0.46;100.00;102213.44;4848825;29;20030;-77
2021/11/09 00:18:53;;;;;;;4.78;1.58;;;;;;;0.47;100.00;102209.84;4850134;29;20098;-77
2021/11/09 00:21:20;;;;;;;2.97;1.42;;;;;;;0.57;100.00;102227.78;4828228;29;20056;-78
2021/11/09 00:23:46;;;;;;;2.35;1.60;;;;;;;0.38;100.00;102194.53;4843832;29;20461;-77
2021/11/09 00:26:13;;;;;;;1.75;1.10;;;;;;;0.63;100.00;102235.31;4842534;29;20469;-78
2021/11/09 00:28:38;;;;;;;1.88;1.27;;;;;;;0.64;100.00;102240.53;4844706;29;20516;-77
2021/11/09 00:31:04;;;;;;;1.48;1.38;;;;;;;0.56;100.00;102212.81;4842665;29;20129;-78
2021/11/09 00:33:30;;;;;;;2.15;1.50;;;;;;;0.58;100.00;102217.09;4861565;29;20037;-78
2021/11/09 00:35:55;;;;;;;1.58;1.45;;;;;;;0.66;100.00;102229.81;4862913;29;20049;-77
2021/11/09 00:38:22;;;;;;;6.10;2.05;;;;;;;0.68;100.00;102235.88;4862706;29;20112;-78
2021/11/09 00:40:47;;;;;;;2.08;1.45;;;;;;;0.63;100.00;102230.88;4858821;29;20031;-78
2021/11/09 00:43:15;;;;;;;1.80;1.50;;;;;;;0.67;100.00;102239.50;4829279;29;20053;-77
2021/11/09 00:45:41;;;;;;;1.80;1.50;;;;;;;0.69;100.00;102237.56;4843535;29;20022;-77
2021/11/09 00:48:07;;;;;;;1.77;1.35;;;;;;;0.60;100.00;102223.13;4843121;29;20037;-77
2021/11/09 00:50:33;;;;;;;1.52;1.27;;;;;;;0.68;100.00;102225.28;4828487;29;20033;-78
2021/11/09 00:52:59;;;;;;;2.20;1.55;;;;;;;0.67;100.00;102227.09;4827566;29;20038;-78
2021/11/09 00:55:25;;;;;;;1.63;1.50;;;;;;;0.59;100.00;102210.81;4845363;29;20026;-77
2021/11/09 00:57:51;;;;;;;2.00;1.38;;;;;;;0.68;100.00;102222.63;4845572;29;20148;-78
2021/11/09 01:00:20;;;;;;;2.85;1.45;;;;;;;0.64;100.00;102203.44;4844555;29;20061;-77
2021/11/09 01:02:47;;;;;;;2.30;1.40;;;;;;;0.69;100.00;102203.13;4841911;29;20125;-78
2021/11/09 01:05:14;;;;;;;1.50;1.23;;;;;;;0.71;100.00;102195.94;4857316;29;20121;-78
2021/11/09 01:07:40;;;;;;;2.47;1.35;;;;;;;0.65;100.00;102185.75;4846160;29;20058;-77
2021/11/09 01:10:07;;;;;;;2.10;1.20;;;;;;;0.73;100.00;102196.69;4844015;29;20471;-78
2021/11/09 01:12:33;;;;;;;1.58;1.42;;;;;;;0.71;100.00;102188.00;4858312;29;20047;-77
2021/11/09 01:14:59;;;;;;;1.45;1.30;;;;;;;0.70;100.00;102194.25;4844003;29;20346;-77
2021/11/09 01:17:25;;;;;;;2.45;1.30;;;;;;;0.73;100.00;102183.47;4844438;29;20061;-77
2021/11/09 01:19:50;;;;;;;1.88;1.15;;;;;;;0.67;100.00;102173.25;4844588;29;20045;-77
2021/11/09 01:22:16;;;;;;;2.63;1.35;;;;;;;0.52;100.00;102156.56;4842163;29;20113;-77
2021/11/09 01:24:48;;;;;;;2.33;1.10;;;;;;;0.69;100.00;102172.19;4828064;29;20040;-77
2021/11/09 01:27:15;;;;;;;1.38;1.20;;;;;;;0.83;100.00;102184.53;4831752;29;20505;-77
2021/11/09 01:29:40;;;;;;;1.60;1.02;;;;;;;0.79;100.00;102171.59;4831382;29;20038;-78
2021/11/09 01:32:06;;;;;;;1.23;1.02;;;;;;;0.81;100.00;102164.41;4852461;29;20034;-77
2021/11/09 01:34:33;;;;;;;1.42;1.02;;;;;;;0.92;100.00;102175.94;4845576;29;20037;-77
2021/11/09 01:36:58;;;;;;;1.35;1.05;;;;;;;0.96;100.00;102178.41;4857696;29;20036;-77
2021/11/09 01:39:24;;;;;;;2.78;1.27;;;;;;;0.91;100.00;102168.97;4863543;29;20372;-78
2021/11/09 01:41:49;;;;;;;2.80;1.10;;;;;;;1.00;100.00;102177.28;4862088;29;20181;-77
2021/11/09 01:44:16;;;;;;;2.22;1.10;;;;;;;1.00;100.00;102177.28;4828030;29;20045;-78
2021/11/09 01:46:42;;;;;;;2.00;1.10;;;;;;;0.93;100.00;102147.69;4829468;29;20030;-78
2021/11/09 01:49:09;;;;;;;1.10;1.00;;;;;;;0.97;100.00;102149.16;4845939;29;20113;-78
2021/11/09 01:51:35;;;;;;;2.17;0.90;;;;;;;1.09;100.00;102166.03;4828495;29;20044;-78
2021/11/09 01:54:01;;;;;;;2.90;1.00;;;;;;;1.10;100.00;102171.22;4863502;29;20473;-78
2021/11/09 01:56:29;;;;;;;1.83;1.10;;;;;;;1.16;100.00;102176.13;4863277;29;20072;-78
2021/11/09 01:58:55;;;;;;;1.98;1.02;;;;;;;1.20;100.00;102174.13;4845132;29;20021;-78
2021/11/09 02:01:23;;;;;;;1.10;0.95;;;;;;;1.20;100.00;102167.97;4867252;29;20138;-77
2021/11/09 02:03:51;;;;;;;1.25;0.95;;;;;;;1.28;100.00;102174.41;4844505;29;20037;-78
2021/11/09 02:06:18;;;;;;;1.60;1.00;;;;;;;1.27;100.00;102161.28;4851084;29;20058;-78
2021/11/09 02:08:44;;;;;;;2.38;1.02;;;;;;;1.37;100.00;102167.66;4847618;29;20034;-78
2021/11/09 02:11:11;;;;;;;1.80;1.08;;;;;;;1.42;100.00;102162.84;4860395;29;20089;-78
2021/11/09 02:13:37;;;;;;;1.52;1.00;;;;;;;1.42;100.00;102157.56;4864797;29;20097;-78
2021/11/09 02:16:02;;;;;;;1.65;1.02;;;;;;;1.43;100.00;102134.56;4868163;29;20037;-78
2021/11/09 02:18:28;;;;;;;3.15;0.90;;;;;;;1.55;100.00;102138.97;4859129;29;20054;-78
2021/11/09 02:21:01;;;;;;;1.92;1.10;;;;;;;1.63;100.00;102148.13;4849340;29;20065;-78
2021/11/09 02:23:30;;;;;;;2.42;1.17;;;;;;;1.65;100.00;102140.88;4848930;29;20025;-78
2021/11/09 02:25:56;;;;;;;2.30;1.00;;;;;;;1.57;100.00;102122.00;4836088;29;20030;-78
2021/11/09 02:28:22;;;;;;;3.28;1.10;;;;;;;1.67;100.00;102122.22;4818413;29;20524;-78
2021/11/09 02:30:47;;;;;;;2.20;1.08;;;;;;;1.72;100.00;102122.72;4849668;29;20037;-78
2021/11/09 02:33:14;;;;;;;1.67;1.02;;;;;;;1.76;100.00;102113.59;4834936;29;20030;-79
2021/11/09 02:35:40;;;;;;;1.65;0.90;;;;;;;1.77;100.00;102104.69;4851076;29;20125;-78
2021/11/09 02:38:06;;;;;;;1.65;1.00;;;;;;;1.73;100.00;102089.09;4848210;29;20086;-78
2021/11/09 02:40:33;;;;;;;1.20;0.80;;;;;;;1.81;100.00;102092.88;4868876;29;20033;-78
2021/11/09 02:43:03;;;;;;;1.80;1.00;;;;;;;1.70;100.00;102065.44;4858086;29;20108;-78
2021/11/09 02:45:41;;;;;;;2.30;1.08;;;;;;;1.85;100.00;102089.06;4848611;29;20034;-78
2021/11/09 02:48:14;;;;;;;2.33;0.80;;;;;;;1.88;100.00;102085.31;4850401;29;20033;-78
2021/11/09 02:50:44;;;;;;;5.10;1.10;;;;;;;1.82;100.00;102069.84;4852056;29;20021;-78
2021/11/09 02:53:24;;;;;;;1.17;0.70;;;;;;;1.87;100.00;102067.72;4851715;29;20068;-79
2021/11/09 02:55:54;;;;;;;2.60;1.10;;;;;;;1.97;100.00;102084.66;4835043;29;20037;-79
2021/11/09 03:01:09;;;;;;;1.27;0.75;;;;;;;2.05;100.00;102068.16;4869233;29;20033;-78
2021/11/09 03:03:50;;;;;;;3.05;1.02;;;;;;;2.11;100.00;102065.06;4858553;29;20026;-78
2021/11/09 03:07:02;;;;;;;2.13;1.02;;;;;;;2.16;100.00;102054.94;4822726;29;20449;-78
2021/11/09 03:09:13;;;;;;;2.88;1.17;;;;;;;2.20;100.00;102058.22;4847976;29;20073;-77
2021/11/09 03:11:45;;;;;;;1.40;0.98;;;;;;;2.25;100.00;102050.75;4848906;29;20117;-78
2021/11/09 03:14:11;;;;;;;2.17;1.10;;;;;;;2.23;100.00;102045.56;4862879;29;20025;-78
2021/11/09 03:16:41;;;;;;;0.98;0.80;;;;;;;2.33;100.00;102035.94;4871016;29;20093;-77
2021/11/09 03:44:27;;;;;;;5.63;1.42;;;;;;;2.95;100.00;102000.22;4830748;29;20053;-78
2021/11/09 03:46:59;;;;;;;6.55;1.10;;;;;;;2.99;100.00;101995.50;4844674;29;20117;-78
2021/11/09 03:49:28;;;;;;;3.10;1.17;;;;;;;3.02;100.00;101984.63;4843883;29;20026;-77
2021/11/09 03:51:55;;;;;;;1.83;1.17;;;;;;;3.12;100.00;101990.91;4845832;29;20022;-78
2021/11/09 03:54:27;;;;;;;3.63;1.08;;;;;;;3.18;100.00;101987.75;4812674;29;20046;-78
2021/11/09 03:57:03;;;;;;;2.55;1.00;;;;;;;3.26;100.00;101980.00;4864262;29;20025;-78
2021/11/09 04:04:34;;;;;;;2.63;1.15;;;;;;;3.40;100.00;101968.25;4819867;29;20029;-79
2021/11/09 04:07:05;;;;;;;2.42;0.98;;;;;;;3.45;100.00;101975.88;4847985;29;20733;-78
2021/11/09 04:28:14;;;;;;;4.65;1.90;;;;;;;3.70;100.00;101961.41;4831040;29;20098;-78
2021/11/09 05:10:30;;;;;;;8.85;2.58;;;;;;;3.87;100.00;101909.41;4833521;29;20484;-78
2021/11/09 05:12:55;;;;;;;8.45;3.00;;;;;;;3.83;100.00;101903.50;4847753;29;20037;-78
2021/11/09 05:15:21;;;;;;;5.15;2.83;;;;;;;3.93;100.00;101906.25;4845720;29;20042;-77
2021/11/09 05:17:46;;;;;;;4.68;2.60;;;;;;;3.95;100.00;101907.81;4846221;29;20074;-77
2021/11/09 05:20:11;;;;;;;6.70;2.58;;;;;;;3.96;100.00;101906.00;4843380;29;20048;-77
2021/11/09 05:22:38;;;;;;;6.13;2.88;;;;;;;3.98;100.00;101902.22;4832512;29;20049;-78
2021/11/09 05:25:04;;;;;;;7.72;2.53;;;;;;;4.00;100.00;101896.75;4845270;29;20411;-78
2021/11/09 05:27:30;;;;;;;9.07;2.78;;;;;;;3.88;100.00;101882.69;4842719;29;20034;-76
2021/11/09 05:29:56;;;;;;;4.53;3.00;;;;;;;4.03;100.00;101893.84;4824508;29;20044;-77
2021/11/09 05:32:22;;;;;;;6.47;2.67;;;;;;;4.05;100.00;101893.72;4842055;29;20034;-77
2021/11/09 05:34:48;;;;;;;7.25;2.50;;;;;;;4.04;100.00;101876.03;4826125;29;20045;-78
2021/11/09 05:37:16;;;;;;;6.95;3.20;;;;;;;4.10;100.00;101889.69;4843150;29;20430;-77
2021/11/09 05:39:53;;;;;;;8.02;3.30;;;;;;;4.11;100.00;101893.22;4845374;29;20030;-79
2021/11/09 05:42:19;;;;;;;9.50;3.50;;;;;;;4.05;100.00;101881.25;4845457;29;20097;-80
2021/11/09 05:44:45;;;;;;;6.75;3.70;;;;;;;4.19;100.00;101898.72;4851917;29;20370;-80
2021/11/09 05:47:11;;;;;;;7.70;3.53;;;;;;;4.23;100.00;101897.47;4848929;29;20026;-80
2021/11/09 05:49:37;;;;;;;9.90;3.72;;;;;;;4.20;100.00;101892.41;4845582;29;20456;-78
2021/11/09 05:52:03;;;;;;;7.43;3.65;;;;;;;4.30;100.00;101889.81;4829707;29;20053;-79
2021/11/09 05:54:29;;;;;;;8.43;4.15;;;;;;;4.27;100.00;101874.91;4832776;29;20041;-79
2021/11/09 05:56:55;;;;;;;10.88;4.07;;;;;;;4.37;100.00;101885.63;4829403;29;20473;-79
2021/11/09 05:59:20;;;;;;;9.35;3.63;;;;;;;4.39;100.00;101881.03;4829317;29;20066;-79
2021/11/09 06:01:47;;;;;;;10.20;3.67;;;;;;;4.44;100.00;101885.00;4845338;29;20116;-79
2021/11/09 06:04:13;;;;;;;6.60;3.50;;;;;;;4.40;100.00;101872.91;4828276;29;20047;-78
2021/11/09 06:06:38;;;;;;;5.88;2.95;;;;;;;4.46;100.00;101872.34;4842986;29;20054;-80
2021/11/09 06:09:04;;;;;;;8.25;3.92;;;;;;;4.55;100.00;101873.38;4831313;29;20057;-80
2021/11/09 06:11:29;;;;;;;8.60;3.60;;;;;;;4.57;100.00;101873.25;4842968;29;20040;-79
2021/11/09 06:13:54;;;;;;;10.15;3.60;;;;;;;4.58;100.00;101873.13;4838648;29;20140;-79
2021/11/09 06:16:20;;;;;;;6.80;3.58;;;;;;;4.66;100.00;101878.63;4839202;29;20110;-80
2021/11/09 06:18:46;;;;;;;9.60;3.40;;;;;;;4.70;100.00;101874.72;4830444;29;20040;-79
2021/11/09 06:21:12;;;;;;;9.25;3.40;;;;;;;4.76;100.00;101872.50;4824413;29;20042;-79
2021/11/09 06:23:39;;;;;;;11.88;3.70;;;;;;;4.79;100.00;101858.88;4842405;29;20048;-79
2021/11/09 06:26:05;;;;;;;10.30;3.70;;;;;;;4.81;100.00;101854.28;4846157;29;20034;-79
2021/11/09 06:28:31;;;;;;;10.30;3.70;;;;;;;4.82;100.00;101854.13;4847494;29;20099;-79
2021/11/09 06:30:57;;;;;;;9.70;3.80;;;;;;;4.84;100.00;101862.00;4839920;29;20037;-79
2021/11/09 06:33:23;;;;;;;9.05;3.92;;;;;;;4.87;100.00;101856.41;4846599;29;20038;-79
2021/11/09 06:35:49;;;;;;;10.93;3.72;;;;;;;4.90;100.00;101840.09;4832220;29;20037;-78
2021/11/09 06:38:15;;;;;;;10.80;3.90;;;;;;;4.91;100.00;101849.81;4839403;29;20461;-78
2021/11/09 06:40:41;;;;;;;10.27;3.80;;;;;;;4.84;100.00;101830.84;4821707;29;20027;-79
2021/11/09 06:43:07;;;;;;;10.70;4.38;;;;;;;4.88;100.00;101828.75;4822543;29;20110;-79
2021/11/09 06:45:33;;;;;;;8.60;4.70;;;;;;;4.93;100.00;101831.81;4830842;29;20022;-79
2021/11/09 06:47:59;;;;;;;10.88;4.35;;;;;;;4.91;100.00;101812.47;4846433;29;20026;-78
2021/11/09 06:50:24;;;;;;;10.18;4.40;;;;;;;4.91;100.00;101807.13;4849443;29;20042;-78
2021/11/09 06:52:50;;;;;;;10.98;4.00;;;;;;;5.05;100.00;101825.41;4847614;29;20030;-78
2021/11/09 06:55:16;;;;;;;6.72;3.60;;;;;;;5.13;100.00;101822.91;4814007;29;20038;-78
2021/11/09 06:57:43;;;;;;;6.47;3.50;;;;;;;5.22;100.00;101826.53;4844501;29;20034;-79
2021/11/09 07:00:13;;;;;;;7.18;3.28;;;;;;;5.27;100.00;101832.31;4839384;29;20468;-77
2021/11/09 07:02:39;;;;;;;11.57;3.55;;;;;;;5.32;100.00;101813.22;4846488;29;20097;-79
2021/11/09 07:05:05;;;;;;;6.45;2.95;;;;;;;5.33;100.00;101817.56;4866569;29;20113;-78
2021/11/09 07:07:31;;;;;;;11.57;3.42;;;;;;;5.41;100.00;101818.56;4797579;29;20145;-78
2021/11/09 07:09:56;;;;;;;10.55;3.67;;;;;;;5.36;100.00;101798.59;4825438;29;20979;-79
2021/11/09 07:12:21;;;;;;;8.13;3.70;;;;;;;5.41;100.00;101796.38;4845326;29;20551;-79
2021/11/09 07:14:47;;;;;;;17.40;4.25;;;;;;;5.54;100.00;101796.91;4841620;29;20029;-79
2021/11/09 07:17:12;;;;;;;14.65;3.53;;;;;;;5.69;100.00;101799.97;4812862;29;20034;-78
2021/11/09 07:19:40;;;;;;;11.75;2.92;;;;;;;5.86;100.00;101790.38;4827324;29;20034;-79
2021/11/09 07:22:06;;;;;;;15.73;2.58;;;;;;;6.26;100.00;101784.84;4842259;29;20029;-78
2021/11/09 07:24:32;;;;;;;10.88;2.72;;;;;;;6.55;100.00;101794.53;4845140;29;20038;-80
2021/11/09 07:26:59;;;;;;;12.43;2.80;;;;;;;6.78;100.00;101789.63;4843773;29;20296;-80
2021/11/09 07:29:24;;;;;;;18.77;2.45;;;;;;;6.94;100.00;101784.44;4845603;29;20029;-79
2021/11/09 07:31:53;;;;;;;14.13;2.58;;;;;;;7.10;100.00;101789.13;4844293;29;20048;-80
2021/11/09 07:34:19;;;;;;;21.13;2.60;;;;;;;7.17;100.00;101770.63;4858549;29;20037;-79
2021/11/09 07:36:44;;;;;;;17.75;2.45;;;;;;;7.31;100.00;101778.13;4842070;29;20042;-79
2021/11/09 07:39:10;;;;;;;15.60;2.67;;;;;;;7.33;100.00;101784.16;4840420;29;20574;-79
2021/11/09 07:41:36;;;;;;;8.60;1.60;;;;;;;7.29;100.00;101772.09;4822703;29;20030;-79
2021/11/09 07:44:03;;;;;;;5.55;1.02;;;;;;;7.28;100.00;101789.13;4829872;29;20490;-79
2021/11/09 07:46:30;;;;;;;13.63;1.90;;;;;;;7.37;100.00;101785.53;4847231;29;20037;-79
2021/11/09 07:48:55;;;;;;;14.15;1.70;;;;;;;7.42;100.00;101780.56;4833249;29;20086;-79
2021/11/09 07:51:21;;;;;;;15.13;1.70;;;;;;;7.42;100.00;101771.69;4843051;29;20046;-79
2021/11/09 07:53:48;;;;;;;11.95;1.55;;;;;;;7.47;100.00;101794.31;4849218;29;20042;-80
2021/11/09 07:56:18;;;;;;;10.50;1.48;;;;;;;7.49;100.00;101803.06;4832996;29;20518;-80
2021/11/09 08:01:39;;;;;;;12.25;1.70;;;;;;;7.59;100.00;101786.91;4826770;29;20040;-80
2021/11/09 08:06:43;;;;;;;13.07;1.98;;;;;;;7.69;100.00;101765.38;4843131;29;20089;-80
2021/11/09 08:11:41;;;;;;;15.23;1.88;;;;;;;7.80;100.00;101757.06;4863395;29;20132;-79
2021/11/09 08:14:07;;;;;;;20.80;1.92;;;;;;;7.86;100.00;101744.88;4831845;29;20033;-79
2021/11/09 08:16:32;;;;;;;17.70;1.92;;;;;;;7.83;100.00;101723.75;4850323;29;20046;-79
2021/11/09 08:18:58;;;;;;;15.10;1.85;;;;;;;8.06;100.00;101754.38;4850481;29;20034;-79
2021/11/09 08:21:23;;;;;;;14.95;2.15;;;;;;;8.06;100.00;101732.09;4844052;29;20461;-79
2021/11/09 08:23:49;;;;;;;17.77;2.15;;;;;;;8.17;100.00;101754.09;4843572;29;20041;-79
2021/11/09 08:26:21;;;;;;;10.48;1.83;;;;;;;8.16;100.00;101744.38;4809778;29;20038;-79
2021/11/09 08:28:47;;;;;;;12.27;1.50;;;;;;;8.27;100.00;101763.84;4843326;29;20037;-79
2021/11/09 08:31:16;;;;;;;13.02;1.45;;;;;;;8.27;100.00;101759.34;4833057;29;20045;-79
2021/11/09 08:33:42;;;;;;;17.08;1.80;;;;;;;8.27;100.00;101763.84;4861756;29;20068;-80
2021/11/09 08:36:10;;;;;;;13.30;1.50;;;;;;;8.32;100.00;101769.59;4852155;29;20029;-79
2021/11/09 08:38:37;;;;;;;10.65;1.63;;;;;;;8.22;100.00;101749.09;4834571;29;20033;-79
2021/11/09 08:41:02;;;;;;;15.02;2.13;;;;;;;8.35;100.00;101762.06;4872214;29;20093;-79
2021/11/09 08:43:35;;;;;;;16.77;2.72;;;;;;;8.36;100.00;101766.41;4856768;29;20554;-79
2021/11/09 08:46:07;;;;;;;15.40;2.13;;;;;;;8.37;100.00;101760.03;4852002;29;20061;-79
2021/11/09 08:48:38;;;;;;;13.02;2.10;;;;;;;8.38;100.00;101752.91;4860222;29;20109;-79
2021/11/09 08:51:08;;;;;;;17.60;2.20;;;;;;;8.35;100.00;101745.97;4832637;29;20033;-80
2021/11/09 08:53:39;;;;;;;16.30;2.08;;;;;;;8.40;100.00;101746.34;4859444;29;20042;-79
2021/11/09 09:04:19;;;;;;;13.40;2.08;;;;;;;8.42;100.00;101728.25;4861978;29;20074;-80
2021/11/09 09:06:47;;;;;;;16.38;2.30;;;;;;;8.44;100.00;101738.81;4862982;29;20096;-79
2021/11/09 09:09:14;;;;;;;20.85;2.63;;;;;;;8.52;100.00;101752.28;4863345;29;20026;-79
2021/11/09 09:11:40;;;;;;;15.75;2.22;;;;;;;8.52;100.00;101752.28;4867603;29;20026;-80
2021/11/09 09:14:06;;;;;;;15.52;2.25;;;;;;;8.52;100.00;101754.94;4857570;29;20111;-80
2021/11/09 09:16:33;;;;;;;21.77;2.40;;;;;;;8.53;100.00;101755.78;4859705;29;20046;-80
2021/11/09 09:19:01;;;;;;;13.20;2.83;;;;;;;8.47;100.00;101752.75;4854573;29;20046;-80
2021/11/09 09:21:40;;;;;;;15.82;2.33;;;;;;;8.52;100.00;101749.59;4853368;29;20040;-80
2021/11/09 09:24:14;;;;;;;17.15;2.30;;;;;;;8.54;100.00;101754.78;4854160;29;20033;-80
2021/11/09 09:26:49;;;;;;;14.43;2.28;;;;;;;8.55;100.00;101745.75;4847851;29;20067;-79
2021/11/09 09:56:58;;;;;;;;;;;;;;;8.75;100.00;101712.25;4862605;29;20362;-79
2021/11/09 09:59:27;;;;;;;;;;;;;;;8.77;100.00;101714.75;4848985;29;19958;-79
2021/11/09 10:02:14;;;;;;;;;;;;;;;8.78;100.00;101714.63;4844721;29;19912;-80
2021/11/09 10:04:48;;;;;;;;;;;;;;;8.80;100.00;101704.53;4844390;29;19939;-80
2021/11/09 10:07:24;;;;;;;;;;;;;;;8.82;100.00;101697.16;4842853;29;19931;-80
2021/11/09 10:09:50;;;;;;;;;;;;;;;8.84;100.00;101692.50;4862481;29;19999;-79
2021/11/09 10:12:29;;;;;;;;;;;;;;;8.85;100.00;101687.97;4861053;29;20047;-79
2021/11/09 10:14:56;;;;;;;;;;;;;;;8.87;100.00;101685.94;4855197;29;19944;-79
2021/11/09 10:17:27;;;;;;;;;;;;;;;8.90;100.00;101690.97;4859969;29;19935;-79
2021/11/09 10:19:53;;;;;;;;;;;;;;;8.89;100.00;101674.03;4868198;29;19912;-79
2021/11/09 10:22:23;;;;;;;;;;;;;;;8.89;100.00;101665.13;4873561;29;20243;-79
2021/11/09 10:24:50;;;;;;;;;;;;;;;8.87;100.00;101657.25;4868691;29;19912;-80
2021/11/09 10:27:16;;;;;;;;;;;;;;;8.86;100.00;101657.41;4855403;29;19920;-79
2021/11/09 10:29:42;;;;;;;;;;;;;;;8.89;100.00;101657.91;4849304;29;20237;-79
2021/11/09 10:32:10;;;;;;;;;;;;;;;8.90;100.00;101656.91;4845088;29;19996;-79
2021/11/09 10:34:36;;;;;;;;;;;;;;;8.88;100.00;101656.25;4847474;29;19999;-79
2021/11/09 10:37:16;;;;;;;;;;;;;;;8.90;100.00;101656.06;4849893;29;19977;-79
2021/11/09 10:39:46;;;;;;;;;;;;;;;8.89;100.00;101654.41;4854700;29;19923;-79
2021/11/09 10:42:13;;;;;;;;;;;;;;;8.91;100.00;101665.81;4868740;29;19911;-79
2021/11/09 10:44:39;;;;;;;;;;;;;;;8.93;100.00;101659.25;4853648;29;19988;-79
2021/11/09 10:47:24;;;;;;;;;;;;;;;8.93;100.00;101650.38;4846883;29;19920;-79
2021/11/09 10:50:09;;;;;;;;;;;;;;;8.91;100.00;101650.56;4845927;29;19976;-78
2021/11/09 10:52:38;;;;;;;;;;;;;;;8.93;100.00;101661.94;4846028;29;19919;-79
2021/11/09 11:00:34;;;;;;;;;;;;;;;8.93;100.00;101637.78;4860735;29;19912;-79
2021/11/09 11:03:20;;;;;;;;;;;;;;;8.92;100.00;101633.44;4865585;29;20358;-79
2021/11/09 11:05:46;;;;;;;;;;;;;;;8.89;100.00;101641.81;4860588;29;20271;-79
2021/11/09 11:08:12;;;;;;;;;;;;;;;8.88;100.00;101632.09;4865086;29;19924;-79
2021/11/09 11:10:38;;;;;;;;;;;;;;;8.84;100.00;101641.50;4859133;29;20292;-79
2021/11/09 11:13:22;;;;;;;;;;;;;;;8.83;100.00;101637.13;4847511;29;19955;-79
2021/11/09 11:16:05;;;;;;;;;;;;;;;8.81;100.00;101647.19;4846325;29;19962;-79
2021/11/09 11:18:33;;;;;;;;;;;;;;;8.81;100.00;101635.63;4844094;29;19912;-79
2021/11/09 11:20:58;;;;;;;;;;;;;;;8.81;100.00;101636.47;4846211;29;19948;-79
2021/11/09 11:23:24;;;;;;;;;;;;;;;8.84;100.00;101620.03;4829945;29;19952;-79
2021/11/09 11:25:49;;;;;;;;;;;;;;;8.76;100.00;101622.69;4852450;29;20354;-79
2021/11/09 11:28:15;;;;;;;;;;;;;;;8.75;100.00;101631.75;4830207;29;19981;-79
2021/11/09 11:30:41;;;;;;;;;;;;;;;8.77;100.00;101626.22;4843621;29;19916;-79
2021/11/09 11:33:06;;;;;;;;;;;;;;;8.87;100.00;101634.94;4845500;29;19931;-79
2021/11/09 11:35:31;;;;;;;;;;;;;;;8.90;100.00;101615.81;4843831;29;19924;-79
2021/11/09 11:37:56;;;;;;;;;;;;;;;8.86;100.00;101622.53;4859889;29;20247;-79
2021/11/09 11:40:22;;;;;;;;;;;;;;;8.90;100.00;101629.22;4863381;29;19947;-79
2021/11/09 11:42:47;;;;;;;;;;;;;;;8.93;100.00;101610.94;4854665;29;20355;-79
2021/11/09 11:45:12;;;;;;;;;;;;;;;8.94;100.00;101633.28;4847661;29;19927;-79
2021/11/09 11:47:38;;;;;;;;;;;;;;;8.94;100.00;101627.91;4847883;29;19931;-79
2021/11/09 11:50:11;;;;;;;;;;;;;;;8.97;100.00;101606.06;4844702;29;19969;-79
2021/11/09 11:52:46;;;;;;;;;;;;;;;9.00;100.00;101602.22;4829516;29;19916;-79
2021/11/09 11:55:21;;;;;;;;;;;;;;;9.01;100.00;101617.34;4847586;29;19948;-81
2021/11/09 11:57:48;;;;;;;;;;;;;;;9.02;100.00;101600.22;4847890;29;19913;-79
2021/11/09 12:00:22;;;;;;;;;;;;;;;9.04;100.00;101582.06;4845177;29;19912;-79
2021/11/09 12:02:47;;;;;;;;;;;;;;;9.06;100.00;101597.00;4843329;29;20050;-79
2021/11/09 12:05:32;;;;;;;;;;;;;;;9.07;100.00;101585.28;4844339;29;20007;-79
2021/11/09 12:07:58;;;;;;;;;;;;;;;9.09;100.00;101595.84;4844520;29;20033;-80
2021/11/09 12:10:35;;;;;;;;;;;;;;;9.10;100.00;101584.09;4845193;29;19916;-79
2021/11/09 12:13:02;;;;;;;;;;;;;;;9.12;100.00;101579.41;4853936;29;19919;-79
2021/11/09 12:15:47;;;;;;;;;;;;;;;9.13;100.00;101573.84;4863882;29;19980;-80
2021/11/09 12:18:31;;;;;;;;;;;;;;;9.16;100.00;101581.56;4855651;29;19923;-79
2021/11/09 12:21:00;;;;;;;;;;;;;;;9.15;100.00;101579.88;4844995;29;19913;-79
2021/11/09 12:23:26;;;;;;;;;;;;;;;9.16;100.00;101586.94;4848399;29;19912;-80
2021/11/09 12:25:52;;;;;;;;;;;;;;;9.18;100.00;101576.03;4862818;29;20533;-79
2021/11/09 12:28:17;;;;;;;;;;;;;;;9.20;100.00;101575.84;4858759;29;19937;-79
2021/11/09 12:30:44;;;;;;;;;;;;;;;9.22;100.00;101589.94;4830430;29;19913;-79
2021/11/09 12:33:16;;;;;;;;;;;;;;;9.21;100.00;101580.22;4845584;29;20335;-79
2021/11/09 12:36:02;;;;;;;;;;;;;;;9.23;100.00;101570.97;4847827;29;19920;-79
2021/11/09 12:38:31;;;;;;;;;;;;;;;9.23;100.00;101567.44;4828557;29;19924;-79
2021/11/09 12:40:58;;;;;;;;;;;;;;;9.24;100.00;101572.66;4854015;29;19916;-79
2021/11/09 12:43:32;;;;;;;;;;;;;;;9.24;100.00;101566.44;4848086;29;20002;-79
2021/11/09 12:46:23;;;;;;;;;;;;;;;9.23;100.00;101554.84;4844619;29;19921;-79
2021/11/09 12:48:53;;;;;;;;;;;;;;;9.22;100.00;101558.56;4841254;29;19955;-79
2021/11/09 12:51:21;;;;;;;;;;;;;;;9.21;100.00;101567.63;4828655;29;19912;-79
2021/11/09 12:53:48;;;;;;;;;;;;;;;9.22;100.00;101565.78;4829586;29;19912;-80
2021/11/09 12:56:22;;;;;;;;;;;;;;;9.23;100.00;101554.84;4850346;29;19940;-80
2021/11/09 12:58:47;;;;;;;;;;;;;;;9.24;100.00;101553.88;4845169;29;19947;-79
2021/11/09 13:01:21;;;;;;;;;;;;;;;9.27;100.00;101544.59;4843843;29;19913;-80
2021/11/09 13:04:27;;;;;;;;;;;;;;;9.27;100.00;101544.59;4843725;29;19916;-80
2021/11/09 13:09:46;;;;;;;;;;;;;;;9.29;100.00;101535.38;4843136;29;19912;-79
2021/11/09 13:12:14;;;;;;;;;;;;;;;9.32;100.00;101535.03;4835255;29;19912;-79
2021/11/09 13:14:49;;;;;;;;;;;;;;;9.33;100.00;101517.91;4844468;29;19912;-80
2021/11/09 13:17:16;;;;;;;;;;;;;;;9.33;100.00;101539.38;4844046;29;19912;-79
2021/11/09 13:19:43;;;;;;;;;;;;;;;9.35;100.00;101536.53;4855583;29;19912;-79
2021/11/09 13:22:14;;;;;;;;;;;;;;;9.35;100.00;101526.63;4846338;29;19912;-79
2021/11/09 13:24:41;;;;;;;;;;;;;;;9.37;100.00;101521.06;4833795;29;19923;-80
2021/11/09 13:27:08;;;;;;;;;;;;;;;9.37;100.00;101519.25;4842742;29;19924;-79
2021/11/09 13:29:51;;;;;;;;;;;;;;;9.38;100.00;101517.38;4846271;29;20421;-79
2021/11/09 13:32:17;;;;;;;;;;;;;;;9.39;100.00;101519.06;4858705;29;20270;-79
2021/11/09 13:34:42;;;;;;;;;;;;;;;9.40;100.00;101501.91;4861649;29;20014;-78
2021/11/09 13:37:08;;;;;;;;;;;;;;;9.41;100.00;101504.44;4861466;29;19920;-79
2021/11/09 13:39:33;;;;;;;;;;;;;;;9.42;100.00;101499.91;4832857;29;20317;-80
2021/11/09 13:41:59;;;;;;;;;;;;;;;9.44;100.00;101492.53;4826186;29;19917;-79
2021/11/09 13:44:29;;;;;;;;;;;;;;;9.46;100.00;101482.41;4844403;29;19928;-80
2021/11/09 13:46:54;;;;;;;;;;;;;;;9.47;100.00;101485.94;4844078;29;19923;-80
2021/11/09 13:49:20;;;;;;;;;;;;;;;9.49;100.00;101473.19;4843227;29;19917;-79
2021/11/09 13:51:55;;;;;;;;;;;;;;;9.50;100.00;101493.66;4843890;29;19916;-79
2021/11/09 13:54:24;;;;;;;;;;;;;;;9.49;100.00;101495.50;4846449;29;19923;-79
2021/11/09 13:56:52;;;;;;;;;;;;;;;9.53;100.00;101494.13;4848621;29;20048;-79
2021/11/09 13:59:23;;;;;;;;;;;;;;;9.54;100.00;101503.06;4834696;29;19920;-79
2021/11/09 14:18:46;;;;;;;;;;;;;;;9.64;100.00;101519.81;4804587;29;20020;-79
2021/11/09 14:21:11;;;;;;;;;;;;;;;9.65;100.00;101521.47;4815978;29;19917;-79
2021/11/09 14:23:38;;;;;;;;;;;;;;;9.65;100.00;101524.97;4832373;29;20001;-80
2021/11/09 14:26:15;;;;;;;;;;;;;;;9.67;100.00;101514.09;4851695;29;20336;-79
2021/11/09 14:28:41;;;;;;;;;;;;;;;9.68;100.00;101531.88;4845895;29;19920;-79
2021/11/09 14:31:14;;;;;;;;;;;;;;;9.71;100.00;101530.69;4844261;29;19937;-79
2021/11/09 14:33:39;;;;;;;;;;;;;;;9.71;100.00;101515.41;4845624;29;20366;-79